Capitol Logistics 334


KMIA
Miami International Airport
Miami, Florida, US
KCVG
Cincinnati/Northern Kentucky International Airport
Covington, Kentucky, US

Activity Log

Date Flight Route Aircraft Duration
08/24/2020 CPX334 KMIA/12 WINCO2 WINCO CHRRI Q118 ATL VXV JAKIE5 KCVG/SPUDR.I18L B763 2h 20m
01/14/2020 CPX334 HEDLY2 HEDLY J81 ORL VQQ AMG VXV JAKIE4 B763 2h 47m
10/09/2019 CPX334 HEDLY2 HEDLY J81 ORL VQQ AMG VXV JAKIE4 B763 2h 29m
07/21/2019 CPX334 POTTR6 HEDLY J81 ORL VQQ AMG VXV HARDU3 B763 2h 10m
11/18/2018 CPX310 HITAG2 HEDLY J81 ORL VQQ AMG VXV HARDU4 B752 2h 18m
11/05/2018 CPX310 HEDLY2 HEDLY J81 ORL VQQ AMG VXV JAKIE4 B752 2h 35m

Route Details

Aircraft Information
Primary: Boeing 767-300BDSF
Backup: Not Available
Route Data
Distance: 899nm
Sched. Duration: 2h 10m
Avg. Duration: 2h 27m (+17m)
Times Flown: 6
Recm'd Route: HEDLY2 HEDLY J81 ORL VQQ AMG VXV JAKIE4
Planned Altitude: 34,000ft
Origin Wx: KMIA 221553Z VRB04KT 10SM BKN032 23/16 A3007 RMK AO2 SLP184 T02330161 $
Dest. Wx: KCVG 221552Z 28011KT 10SM FEW023 BKN230 BKN300 01/M06 A3004 RMK AO2 SLP177 T00061061
Notes:

Financial History
Total Freight: 419,319lbs
Average Load: 69,887lbs/flt
Fuel Used: 142,473lbs
Avg. Fuel Used: 23,746lbs/flt
Fuel Expense: $178,243
Avg. Fuel Expense: $29,707
Avg. Fuel Cost: $1.25/lbs
Total Gross Income: $563,090
Pilot Pay: $924
Total Expenses: $61,126
Total Revenue: $321,331
Average Revenue: $93,848.32